Nearby METAR Reports

 

KDVT - Phoenix/Deer Vly, Arizona, USA
Distance from station: SW 14mi, 22km
Updated: Sun, 29-Nov-2020 6:53am MST
Clear
Clear
 Wind from calm
Wind: Calm
Temperature: 41°F , 5°C
Dew Point: 19°F , -7°C
Humidity: 42%
Barometer: 30.12 inHg , 1020 hPa
Clouds: Clear
Visibility: 10 miles , 16 km
2020/11/29 13:53 KDVT 291353Z 00000KT 10SM CLR 05/M07 A3012 RMK AO2 SLP195 T00501067
KSDL - Scottsdale, Arizona, USA
Distance from station: S 15mi, 23km
Updated: Sun, 29-Nov-2020 6:53am MST
Clear
Clear
 Wind from calm
Wind: Calm
Temperature: 41°F , 5°C
Dew Point: 27°F , -3°C
Humidity: 57%
Barometer: 30.13 inHg , 1020.3 hPa
Clouds: Clear
Visibility: 10 miles , 16 km
2020/11/29 13:53 KSDL 291353Z 00000KT 10SM CLR 05/M03 A3013 RMK AO2 SLP194 T00501028
KFFZ - Mesa/Falcon Fld, Arizona, USA
Distance from station: SSE 27mi, 44km
Updated: Sun, 29-Nov-2020 6:54am MST
Clear
Clear
 Wind from NNE
Wind: NNE 5 mph , 7 km/h
Temperature: 48°F , 9°C
Wind Chill: 46°F , 8°C
Dew Point: 21°F , -6°C
Humidity: 34%
Barometer: 30.12 inHg , 1020 hPa
Clouds: Clear
Visibility: 10 miles , 16 km
2020/11/29 13:54 KFFZ 291354Z 03004KT 10SM CLR 09/M06 A3012 RMK AO2 SLP188 T00891056
 
KPHX - Phoenix/Sky Hrbr, Arizona, USA
Distance from station: SSW 28mi, 45km
Updated: Sun, 29-Nov-2020 6:51am MST
Clear
Clear
 Wind from calm
Wind: Calm
Temperature: 46°F , 8°C
Dew Point: 28°F , -2°C
Humidity: 50%
Barometer: 30.11 inHg , 1019.6 hPa
Clouds: Clear
Visibility: 10 miles , 16 km
2020/11/29 13:51 KPHX 291351Z 00000KT 10SM CLR 08/M02 A3011 RMK AO2 SLP192 T00781022 $
KGEU - Glendale, Arizona, USA
Distance from station: SW 31mi, 49km
Updated: Sun, 29-Nov-2020 6:54am MST
Clear
Clear
 Wind from calm
Wind: Calm
Temperature: 41°F , 5°C
Dew Point: 23°F , -5°C
Humidity: 49%
Barometer: 30.14 inHg , 1020.7 hPa
Clouds: Clear
Visibility: 10 miles , 16 km
2020/11/29 13:54 KGEU 291354Z 00000KT 10SM SKC 05/M05 A3014 RMK FIRST
KLUF - Luke Afb/Glendal, Arizona, USA
Distance from station: SW 34mi, 55km
Updated: Sun, 29-Nov-2020 6:58am MST
Clear
Clear
 Wind from calm
Wind: Calm
Temperature: 39°F , 4°C
Dew Point: 21°F , -6°C
Humidity: 48%
Barometer: 30.11 inHg , 1019.6 hPa
Clouds: Clear
Visibility: 10 miles , 16 km
2020/11/29 13:58 KLUF 291358Z AUTO 00000KT 10SM CLR 04/M06 A3011 RMK AO2 SLP196 T00441062 $
 
KGYR - Goodyear Municip, Arizona, USA
Distance from station: SW 39mi, 63km
Updated: Sun, 29-Nov-2020 6:47am MST
Clear
Clear
 Wind from E
Wind: E 8 mph , 13 km/h
Temperature: 41°F , 5°C
Wind Chill: 36°F , 2°C
Dew Point: 25°F , -4°C
Humidity: 53%
Barometer: 30.13 inHg , 1020.3 hPa
Clouds: Clear
Visibility: 10 miles , 16 km
2020/11/29 13:47 KGYR 291347Z 08007KT 10SM SKC 05/M04 A3013
KIWA - Chandler/Mesa, Arizona, USA
Distance from station: SSE 39mi, 63km
Updated: Sun, 29-Nov-2020 6:55am MST
Clear
Clear
 Wind from ESE
Wind: ESE 6 mph , 9 km/h
Temperature: 57°F , 14°C
Dew Point: 23°F , -5°C
Humidity: 27%
Barometer: 30.14 inHg , 1020.7 hPa
Clouds: Clear
Visibility: 10 miles , 16 km
2020/11/29 13:55 KIWA 291355Z 12005KT 10SM SKC 14/M05 A3014
KPAN - Payson, Arizona, USA
Distance from station: NE 44mi, 70km
Updated: Sun, 29-Nov-2020 7:15am MST
Clear
Clear
 Wind from NNE
Wind: NNE 12 mph , 19 km/h
Temperature: 43°F , 6°C
Wind Chill: 37°F , 3°C
Dew Point: -2°F , -19°C
Humidity: 15%
Barometer: 30.23 inHg , 1023.7 hPa
Clouds: Clear
Visibility: 10 miles , 16 km
2020/11/29 14:15 KPAN 291415Z AUTO 02010KT 10SM CLR 06/M19 A3023 RMK AO2